KJDD

Wood County Airport

Mineola/Quitman, Texas, USA
METAR KJDD 201515Z AUTO 15011G17KT 10SM OVC025 22/17 A2998 RMK AO2
Observed Flight Rules
Feb-20 @ 15:15 UTC (2 hours ago) Marginal Visual Flight Rules
Wind Visibility Clouds
150° at 11 knots
 Gusting to 17 knots
10 miles
  • Overcast at 2,500' AGL
Temperatures Readings
Current 22°C / 72°F
Dewpoint 17°C / 63°F
Humidity 73%
Altimeter 29.98" Hg
Pressure 1015 hPa
Elevation 132
METAR KJDD 201515Z AUTO 15011G17KT 10SM OVC025 22/17 A2998 RMK AO2
Observed Flight Rules
Feb-20 @ 15:15 UTC
(2 hours ago)
MVFR
Wind Visibility
150° at 11 knots
 Gusting to 17 knots
10 miles
Clouds
  • Overcast at 2,500' AGL
Temperature Dewpoint
22°C / 72°F 17°C / 63°F
Humidity Altimeter Pressure
73% 29.98" Hg 1015 hPa